Terminal Aerodrome Forecast
Issued by NWS Binghamton, NY

Home | Current Version | Previous Version | Text Only | Print | Product List | Glossary On
Versions: 1 2 3 4 5 6 7 8 9 10 11 12 13 14 15 16 17 18 19 20 21 22
000
FTUS41 KBGM 020115 AAA
TAFBGM
TAF AMD
KBGM 020115Z 0201/0224 18006KT P6SM OVC005
      TEMPO 0205/0209 3SM -DZ
     FM020900 VRB05KT 2SM -RA BR OVC002
     FM021500 22008KT P6SM -SHRA BKN009 OVC015
     FM022000 31008KT P6SM OVC015=

USA.gov is the U.S. government's official web portal to all federal, state and local government web resources and services.